createdAt,value
2019-04-30T00:00:03.298Z,0.16
2019-04-30T00:01:07.430Z,0.00
2019-04-30T00:02:03.241Z,0.06
2019-04-30T00:03:06.635Z,0.00
2019-04-30T00:04:05.635Z,0.00
2019-04-30T00:05:05.431Z,1.01
2019-04-30T00:06:03.221Z,0.01
2019-04-30T00:07:05.517Z,0.15
2019-04-30T00:08:03.288Z,0.05
2019-04-30T00:09:05.426Z,0.00
2019-04-30T00:10:03.321Z,0.00
2019-04-30T00:11:05.228Z,0.08
2019-04-30T00:12:03.228Z,0.00
2019-04-30T00:13:03.365Z,0.59
2019-04-30T00:14:03.325Z,0.39
2019-04-30T00:15:03.445Z,0.10
2019-04-30T00:16:05.314Z,0.16
2019-04-30T00:17:03.268Z,0.00
2019-04-30T00:18:03.252Z,0.00
2019-04-30T00:19:03.553Z,0.18
2019-04-30T00:20:05.214Z,0.53
2019-04-30T00:21:05.270Z,1.58
2019-04-30T00:22:05.394Z,1.25
2019-04-30T00:23:05.164Z,1.29
2019-04-30T00:24:08.697Z,0.29
2019-04-30T00:25:05.265Z,0.22
2019-04-30T00:26:06.349Z,0.31
2019-04-30T00:27:05.018Z,0.26
2019-04-30T00:28:06.390Z,0.00
2019-04-30T00:29:05.033Z,0.00
2019-04-30T00:30:07.313Z,0.00
2019-04-30T00:31:05.394Z,0.09
2019-04-30T00:32:04.504Z,0.99
2019-04-30T00:33:03.277Z,0.61
2019-04-30T00:34:05.029Z,0.18
2019-04-30T00:35:03.639Z,0.06
2019-04-30T00:36:04.970Z,0.00
2019-04-30T00:37:07.414Z,0.24
2019-04-30T00:38:05.091Z,0.40
2019-04-30T00:39:07.182Z,0.89
2019-04-30T00:40:05.484Z,0.60
2019-04-30T00:41:06.887Z,0.53
2019-04-30T00:42:04.913Z,0.65
2019-04-30T00:43:05.275Z,0.11
2019-04-30T00:44:05.287Z,0.95
2019-04-30T00:45:06.684Z,0.97
2019-04-30T00:46:04.930Z,2.08
2019-04-30T00:47:04.941Z,0.83
2019-04-30T00:48:03.295Z,0.34
2019-04-30T00:49:11.236Z,0.30
2019-04-30T00:50:04.982Z,1.29
2019-04-30T00:51:07.484Z,0.81
2019-04-30T00:52:05.042Z,0.52
2019-04-30T00:53:05.927Z,0.66
2019-04-30T00:54:05.510Z,0.16
2019-04-30T00:55:05.528Z,0.00
2019-04-30T00:56:03.351Z,0.00
2019-04-30T00:57:07.301Z,0.27
2019-04-30T00:58:03.283Z,0.07
2019-04-30T00:59:07.141Z,1.12
2019-04-30T01:00:05.024Z,0.26
2019-04-30T01:01:06.717Z,0.00
2019-04-30T01:02:05.984Z,0.13
2019-04-30T01:03:05.927Z,0.26
2019-04-30T01:04:05.031Z,0.79
2019-04-30T01:05:05.418Z,0.34
2019-04-30T01:06:05.404Z,0.40
2019-04-30T01:07:05.306Z,0.00
2019-04-30T01:08:04.963Z,0.45
2019-04-30T01:09:06.505Z,0.29
2019-04-30T01:10:05.113Z,1.35
2019-04-30T01:11:06.509Z,0.25
2019-04-30T01:12:05.352Z,0.67
2019-04-30T01:13:08.053Z,0.00
2019-04-30T01:14:03.305Z,0.00
2019-04-30T01:15:06.457Z,0.99
2019-04-30T01:16:03.314Z,0.39
2019-04-30T01:17:07.881Z,1.53
2019-04-30T01:18:03.697Z,1.17
2019-04-30T01:19:05.802Z,0.38
2019-04-30T01:20:03.647Z,0.34
2019-04-30T01:21:07.901Z,0.34
2019-04-30T01:22:03.334Z,0.12
2019-04-30T01:23:07.445Z,0.52
2019-04-30T01:24:04.072Z,0.44
2019-04-30T01:25:11.738Z,0.05
2019-04-30T01:26:03.803Z,0.07
2019-04-30T01:27:06.888Z,0.06
2019-04-30T01:28:03.343Z,0.00
2019-04-30T01:29:03.311Z,0.15
2019-04-30T01:30:03.401Z,0.00
2019-04-30T01:31:03.660Z,0.03
2019-04-30T01:32:03.630Z,0.00
2019-04-30T01:33:03.742Z,0.00
2019-04-30T01:34:05.095Z,0.64
2019-04-30T01:35:03.489Z,0.49
2019-04-30T01:36:04.002Z,0.56
2019-04-30T01:37:03.997Z,0.00
2019-04-30T01:38:04.098Z,0.65
2019-04-30T01:39:03.411Z,0.54
2019-04-30T01:40:10.621Z,0.16
2019-04-30T01:41:04.198Z,0.67
2019-04-30T01:42:07.862Z,0.33
2019-04-30T01:43:03.387Z,0.00
2019-04-30T01:44:03.826Z,0.25
2019-04-30T01:45:04.094Z,0.17
2019-04-30T01:46:08.458Z,0.21
2019-04-30T01:47:03.344Z,0.41
2019-04-30T01:48:08.689Z,0.31
2019-04-30T01:49:03.486Z,0.09
2019-04-30T01:50:05.027Z,0.84
2019-04-30T01:51:03.734Z,1.58
2019-04-30T01:52:03.374Z,0.09
2019-04-30T01:53:04.863Z,1.15
2019-04-30T01:54:03.422Z,0.87
2019-04-30T01:55:03.691Z,0.63
2019-04-30T01:56:03.318Z,0.00
2019-04-30T01:57:03.377Z,0.04
2019-04-30T01:58:03.360Z,0.06
2019-04-30T01:59:03.379Z,0.00
2019-04-30T02:00:03.314Z,0.24
2019-04-30T02:01:03.605Z,0.48
2019-04-30T02:02:03.450Z,0.00
2019-04-30T02:03:03.410Z,0.00
2019-04-30T02:04:03.814Z,0.00
2019-04-30T02:05:03.389Z,0.30
2019-04-30T02:06:03.472Z,2.00
2019-04-30T02:07:03.381Z,0.20
2019-04-30T02:08:04.064Z,0.00
2019-04-30T02:09:03.846Z,0.65
2019-04-30T02:10:03.381Z,0.20
2019-04-30T02:11:03.340Z,0.11
2019-04-30T02:12:03.291Z,1.08
2019-04-30T02:13:03.701Z,0.86
2019-04-30T02:14:03.398Z,0.36
2019-04-30T02:15:03.677Z,0.11
2019-04-30T02:16:03.411Z,0.24
2019-04-30T02:17:03.703Z,0.00
2019-04-30T02:18:03.785Z,0.06
2019-04-30T02:19:03.642Z,0.31
2019-04-30T02:20:03.364Z,0.00
2019-04-30T02:21:03.350Z,0.30
2019-04-30T02:22:03.733Z,0.00
2019-04-30T02:23:03.962Z,0.63
2019-04-30T02:24:03.702Z,0.68
2019-04-30T02:25:04.121Z,0.73
2019-04-30T02:26:03.950Z,0.27
2019-04-30T02:27:03.444Z,1.32
2019-04-30T02:28:03.724Z,0.60
2019-04-30T02:29:03.555Z,0.70
2019-04-30T02:30:03.455Z,0.05
2019-04-30T02:31:03.765Z,0.07
2019-04-30T02:32:03.448Z,0.01
2019-04-30T02:33:03.437Z,0.13
2019-04-30T02:34:04.485Z,0.01
2019-04-30T02:35:03.391Z,0.33
2019-04-30T02:36:04.661Z,0.03
2019-04-30T02:37:04.149Z,0.11
2019-04-30T02:38:04.369Z,0.00
2019-04-30T02:39:03.390Z,0.89
2019-04-30T02:40:03.537Z,0.29
2019-04-30T02:41:03.424Z,0.39
2019-04-30T02:42:03.412Z,0.30
2019-04-30T02:43:03.477Z,0.21
2019-04-30T02:44:03.402Z,0.01
2019-04-30T02:45:04.156Z,0.00
2019-04-30T02:46:03.461Z,0.00
2019-04-30T02:47:03.764Z,0.00
2019-04-30T02:48:03.951Z,0.00
2019-04-30T02:49:03.451Z,0.00
2019-04-30T02:50:15.569Z,0.25
2019-04-30T02:51:04.746Z,0.00
2019-04-30T02:52:03.356Z,0.01
2019-04-30T02:53:03.446Z,0.00
2019-04-30T02:54:03.360Z,0.00
2019-04-30T02:55:03.687Z,0.00
2019-04-30T02:56:03.863Z,0.00
2019-04-30T02:57:03.487Z,0.00
2019-04-30T02:58:04.183Z,0.00
2019-04-30T02:59:04.101Z,0.00
2019-04-30T03:00:03.628Z,0.00
2019-04-30T03:01:03.568Z,0.00
2019-04-30T03:02:03.463Z,0.01
2019-04-30T03:03:03.921Z,0.00
2019-04-30T03:04:03.385Z,0.00
2019-04-30T03:05:03.494Z,0.00
2019-04-30T03:06:03.881Z,0.02
2019-04-30T03:07:03.806Z,0.00
2019-04-30T03:08:03.657Z,0.00
2019-04-30T03:09:03.456Z,0.02
2019-04-30T03:10:03.798Z,0.50
2019-04-30T03:11:04.028Z,0.07
2019-04-30T03:12:03.479Z,0.04
2019-04-30T03:13:03.472Z,0.00
2019-04-30T03:14:03.939Z,0.00
2019-04-30T03:15:03.870Z,0.00
2019-04-30T03:16:03.468Z,0.09
2019-04-30T03:17:03.782Z,0.16
2019-04-30T03:18:03.730Z,0.02
2019-04-30T03:19:03.368Z,0.25
2019-04-30T03:20:03.917Z,0.06
2019-04-30T03:21:03.481Z,0.01
2019-04-30T03:22:03.397Z,0.00
2019-04-30T03:23:03.474Z,0.00
2019-04-30T03:24:03.738Z,0.00
2019-04-30T03:25:03.484Z,0.00
2019-04-30T03:26:03.811Z,0.00
2019-04-30T03:27:03.803Z,0.00
2019-04-30T03:28:03.409Z,0.00
2019-04-30T03:29:03.494Z,0.00
2019-04-30T03:30:03.717Z,0.00
2019-04-30T03:31:05.051Z,0.00
2019-04-30T03:32:03.790Z,0.00
2019-04-30T03:33:03.781Z,0.00
2019-04-30T03:34:04.260Z,0.00
2019-04-30T03:35:04.303Z,0.00
2019-04-30T03:36:03.804Z,0.00
2019-04-30T03:37:03.464Z,0.00
2019-04-30T03:38:03.513Z,0.00
2019-04-30T03:39:03.481Z,0.00
2019-04-30T03:40:03.483Z,0.00
2019-04-30T03:41:03.837Z,0.00
2019-04-30T03:42:03.811Z,0.18
2019-04-30T03:43:03.868Z,0.00
2019-04-30T03:44:17.161Z,0.00
2019-04-30T03:45:03.799Z,0.08
2019-04-30T03:46:03.705Z,0.00
2019-04-30T03:47:04.673Z,0.00
2019-04-30T03:48:03.954Z,0.00
2019-04-30T03:49:03.636Z,0.04
2019-04-30T03:50:03.615Z,0.01
2019-04-30T03:51:03.862Z,0.00
2019-04-30T03:52:03.654Z,0.00
2019-04-30T03:53:04.504Z,0.09
2019-04-30T03:54:03.512Z,0.03
2019-04-30T03:55:03.863Z,0.00
2019-04-30T03:56:04.156Z,0.05
2019-04-30T03:57:03.740Z,0.00
2019-04-30T03:58:03.440Z,0.04
2019-04-30T03:59:03.760Z,0.32
2019-04-30T04:00:03.780Z,0.00
2019-04-30T04:01:03.731Z,0.10
2019-04-30T04:02:03.963Z,0.31
2019-04-30T04:03:03.657Z,0.06
2019-04-30T04:04:03.464Z,0.02
2019-04-30T04:05:04.331Z,0.00
2019-04-30T04:06:03.539Z,0.00
2019-04-30T04:07:03.518Z,0.00
2019-04-30T04:08:03.464Z,0.00
2019-04-30T04:09:03.705Z,0.00
2019-04-30T04:10:03.809Z,0.00
2019-04-30T04:11:04.408Z,0.00
2019-04-30T04:12:04.239Z,0.00
2019-04-30T04:13:03.912Z,0.00
2019-04-30T04:14:03.432Z,0.00
2019-04-30T04:15:03.902Z,0.00
2019-04-30T04:16:03.510Z,0.00
2019-04-30T04:17:03.540Z,0.00
2019-04-30T04:18:04.559Z,0.00
2019-04-30T04:19:03.946Z,0.00
2019-04-30T04:20:03.487Z,0.00
2019-04-30T04:21:11.633Z,0.13
2019-04-30T04:22:04.181Z,0.08
2019-04-30T04:23:04.110Z,0.10
2019-04-30T04:24:03.854Z,0.00
2019-04-30T04:25:03.522Z,0.24
2019-04-30T04:26:03.865Z,0.52
2019-04-30T04:27:03.552Z,0.07
2019-04-30T04:28:03.497Z,0.19
2019-04-30T04:29:03.477Z,0.70
2019-04-30T04:30:03.608Z,0.29
2019-04-30T04:31:03.542Z,0.18
2019-04-30T04:32:04.176Z,0.00
2019-04-30T04:33:03.539Z,0.00
2019-04-30T04:34:03.654Z,0.00
2019-04-30T04:35:03.535Z,0.00
2019-04-30T04:36:03.565Z,0.00
2019-04-30T04:37:03.608Z,0.00
2019-04-30T04:38:03.929Z,0.00
2019-04-30T04:39:03.985Z,0.00
2019-04-30T04:40:03.493Z,0.06
2019-04-30T04:41:03.499Z,0.01
2019-04-30T04:42:04.008Z,0.00
2019-04-30T04:43:03.984Z,0.00
2019-04-30T04:44:03.818Z,0.00
2019-04-30T04:45:04.274Z,0.00
2019-04-30T04:46:03.535Z,0.00
2019-04-30T04:47:03.758Z,0.00
2019-04-30T04:48:03.550Z,0.00
2019-04-30T04:49:04.308Z,0.00
2019-04-30T04:50:04.133Z,0.00
2019-04-30T04:51:03.442Z,0.00
2019-04-30T04:52:03.547Z,0.00
2019-04-30T04:53:03.535Z,0.00
2019-04-30T04:54:03.634Z,0.00
2019-04-30T04:55:03.564Z,0.00
2019-04-30T04:56:03.524Z,0.00
2019-04-30T04:57:14.848Z,0.00
2019-04-30T04:58:03.536Z,0.00
2019-04-30T04:59:03.495Z,0.00
2019-04-30T05:00:07.173Z,0.00
2019-04-30T05:01:03.552Z,0.00
2019-04-30T05:02:03.528Z,0.17
2019-04-30T05:03:06.083Z,0.40
2019-04-30T05:04:03.526Z,0.02
2019-04-30T05:05:03.527Z,0.07
2019-04-30T05:06:03.500Z,0.09
2019-04-30T05:07:03.554Z,0.21
2019-04-30T05:08:03.848Z,0.06
2019-04-30T05:09:03.578Z,0.00
2019-04-30T05:10:03.577Z,0.00
2019-04-30T05:11:03.541Z,0.00
2019-04-30T05:12:03.533Z,0.37
2019-04-30T05:13:03.567Z,0.27
2019-04-30T05:14:03.511Z,0.15
2019-04-30T05:15:03.566Z,0.00
2019-04-30T05:16:03.573Z,0.28
2019-04-30T05:17:03.517Z,0.68
2019-04-30T05:18:03.590Z,0.32
2019-04-30T05:19:03.659Z,0.02
2019-04-30T05:20:03.596Z,0.00
2019-04-30T05:21:03.548Z,0.00
2019-04-30T05:22:03.949Z,0.10
2019-04-30T05:23:03.999Z,0.45
2019-04-30T05:24:03.533Z,0.28
2019-04-30T05:25:03.613Z,0.22
2019-04-30T05:26:03.529Z,0.04
2019-04-30T05:27:03.521Z,0.00
2019-04-30T05:28:04.187Z,0.43
2019-04-30T05:29:04.615Z,0.02
2019-04-30T05:30:03.760Z,0.06
2019-04-30T05:31:03.605Z,0.62
2019-04-30T05:32:03.610Z,0.35
2019-04-30T05:33:03.873Z,0.38
2019-04-30T05:34:06.377Z,0.53
2019-04-30T05:35:03.638Z,0.29
2019-04-30T05:36:03.557Z,0.29
2019-04-30T05:37:03.689Z,0.10
2019-04-30T05:38:03.895Z,0.08
2019-04-30T05:39:03.526Z,0.59
2019-04-30T05:40:03.621Z,0.33
2019-04-30T05:41:03.599Z,0.55
2019-04-30T05:42:03.525Z,0.01
2019-04-30T05:43:04.099Z,0.80
2019-04-30T05:44:03.596Z,0.90
2019-04-30T05:45:03.656Z,0.16
2019-04-30T05:46:03.638Z,0.23
2019-04-30T05:47:03.923Z,0.24
2019-04-30T05:48:03.560Z,0.57
2019-04-30T05:49:04.148Z,0.60
2019-04-30T05:50:03.602Z,0.45
2019-04-30T05:51:04.220Z,0.36
2019-04-30T05:52:03.575Z,0.03
2019-04-30T05:53:03.583Z,0.99
2019-04-30T05:54:03.559Z,1.16
2019-04-30T05:55:03.630Z,0.45
2019-04-30T05:56:03.623Z,0.00
2019-04-30T05:57:03.601Z,0.00
2019-04-30T05:58:03.534Z,0.68
2019-04-30T05:59:03.736Z,1.01
2019-04-30T06:00:03.770Z,0.56
2019-04-30T06:01:03.641Z,0.54
2019-04-30T06:02:03.853Z,0.24
2019-04-30T06:03:06.857Z,0.02
2019-04-30T06:04:03.543Z,0.19
2019-04-30T06:05:03.723Z,0.54
2019-04-30T06:06:04.307Z,0.86
2019-04-30T06:07:03.877Z,0.39
2019-04-30T06:08:03.613Z,0.72
2019-04-30T06:09:06.696Z,1.05
2019-04-30T06:10:03.507Z,0.39
2019-04-30T06:11:04.144Z,0.19
2019-04-30T06:12:04.650Z,0.00
2019-04-30T06:13:03.671Z,0.32
2019-04-30T06:14:03.776Z,0.40
2019-04-30T06:15:04.028Z,0.35
2019-04-30T06:16:03.896Z,0.24
2019-04-30T06:17:03.623Z,0.04
2019-04-30T06:18:10.772Z,0.13
2019-04-30T06:19:03.769Z,0.38
2019-04-30T06:20:15.551Z,0.27
2019-04-30T06:21:04.322Z,0.89
2019-04-30T06:22:07.419Z,1.14
2019-04-30T06:23:03.997Z,0.13
2019-04-30T06:24:03.822Z,1.05
2019-04-30T06:25:04.080Z,0.85
2019-04-30T06:26:09.725Z,0.50
2019-04-30T06:27:03.621Z,0.35
2019-04-30T06:28:03.609Z,0.64
2019-04-30T06:29:04.367Z,0.02
2019-04-30T06:30:03.595Z,0.06
2019-04-30T06:31:03.591Z,0.80
2019-04-30T06:32:03.635Z,0.37
2019-04-30T06:33:03.659Z,1.43
2019-04-30T06:34:03.732Z,0.77
2019-04-30T06:35:03.555Z,0.63
2019-04-30T06:36:03.620Z,0.33
2019-04-30T06:37:03.589Z,0.90
2019-04-30T06:38:03.694Z,0.56
2019-04-30T06:39:04.459Z,1.26
2019-04-30T06:40:03.607Z,1.06
2019-04-30T06:41:03.562Z,1.34
2019-04-30T06:42:06.912Z,0.52
2019-04-30T06:43:03.801Z,0.97
2019-04-30T06:44:03.659Z,0.12
2019-04-30T06:45:03.654Z,0.11
2019-04-30T06:46:03.634Z,0.43
2019-04-30T06:47:03.690Z,0.19
2019-04-30T06:48:03.701Z,0.95
2019-04-30T06:49:03.584Z,1.50
2019-04-30T06:50:04.299Z,1.30
2019-04-30T06:51:03.686Z,1.26
2019-04-30T06:52:03.989Z,1.85
2019-04-30T06:53:04.196Z,2.11
2019-04-30T06:54:04.548Z,1.11
2019-04-30T06:55:03.650Z,0.60
2019-04-30T06:56:04.123Z,0.27
2019-04-30T06:57:04.000Z,0.83
2019-04-30T06:58:12.008Z,0.64
2019-04-30T06:59:03.694Z,0.87
2019-04-30T07:00:04.213Z,1.02
2019-04-30T07:01:03.610Z,0.83
2019-04-30T07:02:04.205Z,0.19
2019-04-30T07:03:03.969Z,0.89
2019-04-30T07:04:03.747Z,0.34
2019-04-30T07:05:03.602Z,0.40
2019-04-30T07:06:03.695Z,0.43
2019-04-30T07:07:04.358Z,0.48
2019-04-30T07:08:09.241Z,0.25
2019-04-30T07:09:04.170Z,0.83
2019-04-30T07:10:03.720Z,1.42
2019-04-30T07:11:07.417Z,0.43
2019-04-30T07:12:03.730Z,1.57
2019-04-30T07:13:03.906Z,0.82
2019-04-30T07:14:04.954Z,0.01
2019-04-30T07:15:04.032Z,0.04
2019-04-30T07:16:04.379Z,0.59
2019-04-30T07:17:03.959Z,0.48
2019-04-30T07:18:04.006Z,0.50
2019-04-30T07:19:04.060Z,0.54
2019-04-30T07:20:03.954Z,0.20
2019-04-30T07:21:03.917Z,1.20
2019-04-30T07:22:04.388Z,0.44
2019-04-30T07:23:03.653Z,0.01
2019-04-30T07:24:03.744Z,0.00
2019-04-30T07:25:04.203Z,0.32
2019-04-30T07:26:03.972Z,0.27
2019-04-30T07:27:03.618Z,0.28
2019-04-30T07:28:04.717Z,0.00
2019-04-30T07:29:03.641Z,0.00
2019-04-30T07:30:04.136Z,0.00
2019-04-30T07:31:11.663Z,0.00
2019-04-30T07:32:03.994Z,0.00
2019-04-30T07:33:03.667Z,0.18
2019-04-30T07:34:04.034Z,0.20
2019-04-30T07:35:04.492Z,0.06
2019-04-30T07:36:03.824Z,0.98
2019-04-30T07:37:16.361Z,0.79
2019-04-30T07:38:04.877Z,0.66
2019-04-30T07:39:03.614Z,0.64
2019-04-30T07:40:04.074Z,0.48
2019-04-30T07:41:03.638Z,0.13
2019-04-30T07:42:03.716Z,0.00
2019-04-30T07:43:04.036Z,0.02
2019-04-30T07:44:03.636Z,0.28
2019-04-30T07:45:04.182Z,0.40
2019-04-30T07:46:03.684Z,0.20
2019-04-30T07:47:04.014Z,0.00
2019-04-30T07:48:03.625Z,0.00
2019-04-30T07:49:03.694Z,0.03
2019-04-30T07:50:03.657Z,0.01
2019-04-30T07:51:03.770Z,0.00
2019-04-30T07:52:07.357Z,0.00
2019-04-30T07:53:06.517Z,0.21
2019-04-30T07:54:03.650Z,0.68
2019-04-30T07:55:03.717Z,1.16
2019-04-30T07:56:23.614Z,0.67
2019-04-30T07:57:03.660Z,0.13
2019-04-30T07:58:03.944Z,0.39
2019-04-30T07:59:03.760Z,0.40
2019-04-30T08:00:03.776Z,0.10
2019-04-30T08:01:03.735Z,0.12
2019-04-30T08:02:13.710Z,1.05
2019-04-30T08:03:03.990Z,0.00
2019-04-30T08:04:03.839Z,0.59
2019-04-30T08:05:04.037Z,0.01
2019-04-30T08:06:04.086Z,0.01
2019-04-30T08:07:03.772Z,0.38
2019-04-30T08:08:17.666Z,0.52
2019-04-30T08:09:03.773Z,0.06
2019-04-30T08:10:03.757Z,0.00
2019-04-30T08:11:04.041Z,0.08
2019-04-30T08:12:03.891Z,0.68
2019-04-30T08:13:10.105Z,1.15
2019-04-30T08:14:04.022Z,0.21
2019-04-30T08:15:03.693Z,0.90
2019-04-30T08:16:04.069Z,0.69
2019-04-30T08:17:04.598Z,0.73
2019-04-30T08:18:05.844Z,1.02
2019-04-30T08:19:03.750Z,0.52
2019-04-30T08:20:03.816Z,0.75
2019-04-30T08:21:03.698Z,0.43
2019-04-30T08:22:04.102Z,1.53
2019-04-30T08:23:15.701Z,0.61
2019-04-30T08:24:04.021Z,0.36
2019-04-30T08:25:03.786Z,2.32
2019-04-30T08:26:03.740Z,1.19
2019-04-30T08:27:04.063Z,0.17
2019-04-30T08:28:03.772Z,1.53
2019-04-30T08:29:04.081Z,0.74
2019-04-30T08:30:03.780Z,0.23
2019-04-30T08:31:03.653Z,0.33
2019-04-30T08:32:03.990Z,0.21
2019-04-30T08:33:04.441Z,0.53
2019-04-30T08:34:04.221Z,0.94
2019-04-30T08:35:09.403Z,0.73
2019-04-30T08:36:03.700Z,0.61
2019-04-30T08:37:15.039Z,0.31
2019-04-30T08:38:03.732Z,0.83
2019-04-30T08:39:04.048Z,1.10
2019-04-30T08:40:03.699Z,0.54
2019-04-30T08:41:03.772Z,0.31
2019-04-30T08:42:03.755Z,0.68
2019-04-30T08:43:04.026Z,0.99
2019-04-30T08:44:03.933Z,0.41
2019-04-30T08:45:04.147Z,1.21
2019-04-30T08:46:04.053Z,0.69
2019-04-30T08:47:04.087Z,0.96
2019-04-30T08:48:03.987Z,0.71
2019-04-30T08:49:04.045Z,0.07
2019-04-30T08:50:04.100Z,0.69
2019-04-30T08:51:04.069Z,1.30
2019-04-30T08:52:03.738Z,1.44
2019-04-30T08:53:04.636Z,1.29
2019-04-30T08:54:03.864Z,1.47
2019-04-30T08:55:13.353Z,0.39
2019-04-30T08:56:04.479Z,0.48
2019-04-30T08:57:04.085Z,1.41
2019-04-30T08:58:10.089Z,0.72
2019-04-30T08:59:04.541Z,0.49
2019-04-30T09:00:04.718Z,0.11
2019-04-30T09:01:03.738Z,0.54
2019-04-30T09:02:13.601Z,1.59
2019-04-30T09:03:03.752Z,0.35
2019-04-30T09:04:04.059Z,0.91
2019-04-30T09:05:03.837Z,0.19
2019-04-30T09:06:04.813Z,0.90
2019-04-30T09:07:03.722Z,1.33
2019-04-30T09:08:04.124Z,0.43
2019-04-30T09:09:03.881Z,1.21
2019-04-30T09:10:04.785Z,0.86
2019-04-30T09:11:03.803Z,0.34
2019-04-30T09:12:04.113Z,0.21
2019-04-30T09:13:03.773Z,0.12
2019-04-30T09:14:04.135Z,0.73
2019-04-30T09:15:04.310Z,0.22
2019-04-30T09:16:03.769Z,0.00
2019-04-30T09:17:04.179Z,0.85
2019-04-30T09:18:11.791Z,0.19
2019-04-30T09:19:03.731Z,0.20
2019-04-30T09:20:03.839Z,0.58
2019-04-30T09:21:06.217Z,0.13
2019-04-30T09:22:12.376Z,0.15
2019-04-30T09:23:03.911Z,0.49
2019-04-30T09:24:03.774Z,0.87
2019-04-30T09:25:03.871Z,1.21
2019-04-30T09:26:04.734Z,0.51
2019-04-30T09:27:03.793Z,0.26
2019-04-30T09:28:04.503Z,0.36
2019-04-30T09:29:03.725Z,0.34
2019-04-30T09:30:03.818Z,0.31
2019-04-30T09:31:03.763Z,0.03
2019-04-30T09:32:04.369Z,0.16
2019-04-30T09:33:03.765Z,0.79
2019-04-30T09:34:14.162Z,0.33
2019-04-30T09:35:04.079Z,1.95
2019-04-30T09:36:04.410Z,0.86
2019-04-30T09:37:03.765Z,0.46
2019-04-30T09:38:03.728Z,0.53
2019-04-30T09:39:03.801Z,0.37
2019-04-30T09:40:15.287Z,0.17
2019-04-30T09:41:03.757Z,0.23
2019-04-30T09:42:03.893Z,0.97
2019-04-30T09:43:03.777Z,0.50
2019-04-30T09:44:03.859Z,0.46
2019-04-30T09:45:04.147Z,0.21
2019-04-30T09:46:15.230Z,0.72
2019-04-30T09:47:04.361Z,1.15
2019-04-30T09:48:04.879Z,0.07
2019-04-30T09:49:03.783Z,0.00
2019-04-30T09:50:03.991Z,0.19
2019-04-30T09:51:04.166Z,0.05
2019-04-30T09:52:03.899Z,0.89
2019-04-30T09:53:03.951Z,1.16
2019-04-30T09:54:04.481Z,0.65
2019-04-30T09:55:04.085Z,0.89
2019-04-30T09:56:04.111Z,0.79
2019-04-30T09:57:04.175Z,1.06
2019-04-30T09:58:14.118Z,1.04
2019-04-30T09:59:04.102Z,0.24
2019-04-30T10:00:04.164Z,0.88
2019-04-30T10:01:03.815Z,0.45
2019-04-30T10:02:03.780Z,1.23
2019-04-30T10:03:09.632Z,1.38
2019-04-30T10:04:04.262Z,0.97
2019-04-30T10:05:04.787Z,1.49
2019-04-30T10:06:03.836Z,0.89
2019-04-30T10:07:03.791Z,0.48
2019-04-30T10:08:04.011Z,0.82
2019-04-30T10:09:04.050Z,0.25
2019-04-30T10:10:03.893Z,0.71
2019-04-30T10:11:03.775Z,0.79
2019-04-30T10:12:03.865Z,0.98
2019-04-30T10:13:03.851Z,0.95
2019-04-30T10:14:03.775Z,0.59
2019-04-30T10:15:03.887Z,0.95
2019-04-30T10:16:03.960Z,1.61
2019-04-30T10:17:04.143Z,0.53
2019-04-30T10:18:03.895Z,0.59
2019-04-30T10:19:04.133Z,0.73
2019-04-30T10:20:03.895Z,1.12
2019-04-30T10:21:04.018Z,1.35
2019-04-30T10:22:03.834Z,0.94
2019-04-30T10:23:04.276Z,1.00
2019-04-30T10:24:14.713Z,0.53
2019-04-30T10:25:04.477Z,0.69
2019-04-30T10:26:04.467Z,0.88
2019-04-30T10:27:06.905Z,1.09
2019-04-30T10:28:03.863Z,0.49
2019-04-30T10:29:03.815Z,1.09
2019-04-30T10:30:04.088Z,1.26
2019-04-30T10:31:04.060Z,1.17
2019-04-30T10:32:03.839Z,0.59
2019-04-30T10:33:03.843Z,0.80
2019-04-30T10:34:03.845Z,0.65
2019-04-30T10:35:03.933Z,0.72
2019-04-30T10:36:04.221Z,0.71
2019-04-30T10:37:04.214Z,0.95
2019-04-30T10:38:05.464Z,1.77
2019-04-30T10:39:03.822Z,1.92
2019-04-30T10:40:03.925Z,1.19
2019-04-30T10:41:03.877Z,0.32
2019-04-30T10:42:03.888Z,0.76
2019-04-30T10:43:03.895Z,1.27
2019-04-30T10:44:04.253Z,0.94
2019-04-30T10:45:04.978Z,0.71
2019-04-30T10:46:04.205Z,1.64
2019-04-30T10:47:03.839Z,1.03
2019-04-30T10:48:03.925Z,1.07
2019-04-30T10:49:04.203Z,0.54
2019-04-30T10:50:03.868Z,0.26
2019-04-30T10:51:04.539Z,1.84
2019-04-30T10:52:03.971Z,2.67
2019-04-30T10:53:03.883Z,0.67
2019-04-30T10:54:03.809Z,1.27
2019-04-30T10:55:04.666Z,1.06
2019-04-30T10:56:03.905Z,1.79
2019-04-30T10:57:04.097Z,2.62
2019-04-30T10:58:03.896Z,0.78
2019-04-30T10:59:03.883Z,1.24
2019-04-30T11:00:03.839Z,0.91
2019-04-30T11:01:03.930Z,0.94
2019-04-30T11:02:04.244Z,1.97
2019-04-30T11:03:03.914Z,1.75
2019-04-30T11:04:03.915Z,1.54
2019-04-30T11:05:03.974Z,1.08
2019-04-30T11:06:04.179Z,1.24
2019-04-30T11:07:03.973Z,0.49
2019-04-30T11:08:04.207Z,0.52
2019-04-30T11:09:03.828Z,1.01
2019-04-30T11:10:08.659Z,1.45
2019-04-30T11:11:03.906Z,1.21
2019-04-30T11:12:03.844Z,1.01
2019-04-30T11:13:03.979Z,1.61
2019-04-30T11:14:03.887Z,1.45
2019-04-30T11:15:03.988Z,2.10
2019-04-30T11:16:12.630Z,2.46
2019-04-30T11:17:04.599Z,1.37
2019-04-30T11:18:04.117Z,1.22
2019-04-30T11:19:04.090Z,0.63
2019-04-30T11:20:04.073Z,1.02
2019-04-30T11:21:04.110Z,1.21
2019-04-30T11:22:04.058Z,1.35
2019-04-30T11:23:14.309Z,1.12
2019-04-30T11:24:03.880Z,0.85
2019-04-30T11:25:04.486Z,1.13
2019-04-30T11:26:04.669Z,1.02
2019-04-30T11:27:04.457Z,0.98
2019-04-30T11:28:04.477Z,0.91
2019-04-30T11:29:05.200Z,1.13
2019-04-30T11:30:04.313Z,0.45
2019-04-30T11:31:04.212Z,1.34
2019-04-30T11:32:04.668Z,1.31
2019-04-30T11:33:04.037Z,0.73
2019-04-30T11:34:03.979Z,1.01
2019-04-30T11:35:03.902Z,1.30
2019-04-30T11:36:05.048Z,1.44
2019-04-30T11:37:04.304Z,0.58
2019-04-30T11:38:04.856Z,0.87
2019-04-30T11:39:03.875Z,0.96
2019-04-30T11:40:03.846Z,1.28
2019-04-30T11:41:03.938Z,0.21
2019-04-30T11:42:03.911Z,1.84
2019-04-30T11:43:03.976Z,2.02
2019-04-30T11:44:03.953Z,0.69
2019-04-30T11:45:04.994Z,1.58
2019-04-30T11:46:04.212Z,2.02
2019-04-30T11:47:03.936Z,0.56
2019-04-30T11:48:04.250Z,0.18
2019-04-30T11:49:03.968Z,0.22
2019-04-30T11:50:04.642Z,0.27
2019-04-30T11:51:04.244Z,1.37
2019-04-30T11:52:03.911Z,0.79
2019-04-30T11:53:19.525Z,0.98
2019-04-30T11:54:03.954Z,1.37
2019-04-30T11:55:04.336Z,1.03
2019-04-30T11:56:04.380Z,1.43
2019-04-30T11:57:03.972Z,1.50
2019-04-30T11:58:05.088Z,1.22
2019-04-30T11:59:04.299Z,1.55
2019-04-30T12:00:03.909Z,1.74
2019-04-30T12:01:04.451Z,1.49
2019-04-30T12:02:04.256Z,0.85
2019-04-30T12:03:03.926Z,1.20
2019-04-30T12:04:04.032Z,1.16
2019-04-30T12:05:05.308Z,1.18
2019-04-30T12:06:04.010Z,1.69
2019-04-30T12:07:03.995Z,1.12
2019-04-30T12:08:05.328Z,1.80
2019-04-30T12:09:04.358Z,1.81
2019-04-30T12:10:03.930Z,1.31
2019-04-30T12:11:04.813Z,2.37
2019-04-30T12:12:04.793Z,1.33
2019-04-30T12:13:03.944Z,1.49
2019-04-30T12:14:04.075Z,1.19
2019-04-30T12:15:04.175Z,0.92
2019-04-30T12:16:03.960Z,1.08
2019-04-30T12:17:04.313Z,0.84
2019-04-30T12:18:03.958Z,1.16
2019-04-30T12:19:03.926Z,0.74
2019-04-30T12:20:04.064Z,0.88
2019-04-30T12:21:04.280Z,0.84
2019-04-30T12:22:03.901Z,1.28
2019-04-30T12:23:04.040Z,0.76
2019-04-30T12:24:03.954Z,0.91
2019-04-30T12:25:05.445Z,0.61
2019-04-30T12:26:05.098Z,0.25
2019-04-30T12:27:03.969Z,0.40
2019-04-30T12:28:04.283Z,0.44
2019-04-30T12:29:04.068Z,0.51
2019-04-30T12:30:04.168Z,0.95
2019-04-30T12:31:05.870Z,1.43
2019-04-30T12:32:04.350Z,1.61
2019-04-30T12:33:04.425Z,0.63
2019-04-30T12:34:04.264Z,1.04
2019-04-30T12:35:04.014Z,1.14
2019-04-30T12:36:06.308Z,0.54
2019-04-30T12:37:03.952Z,1.04
2019-04-30T12:38:04.965Z,0.73
2019-04-30T12:39:03.988Z,0.38
2019-04-30T12:40:03.944Z,1.01
2019-04-30T12:41:04.008Z,1.27
2019-04-30T12:42:03.998Z,0.79
2019-04-30T12:43:04.309Z,0.22
2019-04-30T12:44:04.057Z,0.39
2019-04-30T12:45:04.012Z,0.84
2019-04-30T12:46:05.494Z,1.37
2019-04-30T12:47:04.456Z,0.57
2019-04-30T12:48:03.986Z,1.02
2019-04-30T12:49:04.280Z,1.11
2019-04-30T12:50:04.070Z,0.82
2019-04-30T12:51:04.018Z,1.03
2019-04-30T12:52:03.954Z,0.92
2019-04-30T12:53:04.027Z,0.58
2019-04-30T12:54:04.355Z,0.93
2019-04-30T12:55:14.957Z,1.07
2019-04-30T12:56:04.186Z,1.00
2019-04-30T12:57:04.356Z,0.90
2019-04-30T12:58:03.984Z,0.42
2019-04-30T12:59:04.784Z,0.42
2019-04-30T13:00:04.219Z,0.67
2019-04-30T13:01:04.292Z,1.32
2019-04-30T13:02:04.410Z,0.40
2019-04-30T13:03:04.010Z,1.11
2019-04-30T13:04:03.993Z,1.35
2019-04-30T13:05:05.435Z,0.97
2019-04-30T13:06:04.882Z,0.62
2019-04-30T13:07:04.545Z,0.64
2019-04-30T13:08:04.646Z,0.79
2019-04-30T13:09:05.945Z,0.58
2019-04-30T13:10:04.471Z,0.29
2019-04-30T13:11:04.436Z,0.08
2019-04-30T13:12:04.813Z,0.74
2019-04-30T13:13:04.256Z,0.46
2019-04-30T13:14:04.595Z,0.61
2019-04-30T13:15:06.780Z,0.61
2019-04-30T13:16:04.336Z,0.53
2019-04-30T13:17:04.288Z,2.00
2019-04-30T13:18:04.041Z,1.06